createdAt,value
2023-02-11T00:01:32.000Z,3.17
2023-02-11T00:04:01.736Z,1.80
2023-02-11T00:06:31.582Z,2.43
2023-02-11T00:09:00.169Z,1.77
2023-02-11T00:11:30.617Z,1.27
2023-02-11T00:14:02.676Z,2.10
2023-02-11T00:16:32.326Z,2.70
2023-02-11T00:19:01.596Z,1.90
2023-02-11T00:21:30.553Z,2.73
2023-02-11T00:24:02.160Z,1.23
2023-02-11T00:26:33.154Z,2.13
2023-02-11T00:29:03.913Z,2.27
2023-02-11T00:31:32.806Z,2.40
2023-02-11T00:34:01.378Z,1.07
2023-02-11T00:36:31.094Z,1.63
2023-02-11T00:39:00.551Z,2.73
2023-02-11T00:41:29.292Z,2.27
2023-02-11T00:43:57.820Z,1.10
2023-02-11T00:46:28.066Z,1.53
2023-02-11T00:48:57.896Z,2.13
2023-02-11T00:51:26.781Z,2.30
2023-02-11T00:53:55.859Z,2.50
2023-02-11T00:56:24.668Z,2.30
2023-02-11T00:58:53.966Z,2.20
2023-02-11T01:01:22.716Z,2.20
2023-02-11T01:03:52.692Z,1.67
2023-02-11T01:06:21.538Z,2.17
2023-02-11T01:08:50.056Z,1.30
2023-02-11T01:11:20.994Z,2.20
2023-02-11T01:13:50.834Z,1.77
2023-02-11T01:16:21.376Z,3.43
2023-02-11T01:18:51.324Z,2.40
2023-02-11T01:21:20.036Z,2.30
2023-02-11T01:23:48.640Z,2.90
2023-02-11T01:26:17.179Z,2.17
2023-02-11T01:28:45.677Z,1.23
2023-02-11T01:31:14.379Z,4.13
2023-02-11T01:33:43.195Z,1.93
2023-02-11T01:36:14.043Z,1.90
2023-02-11T01:38:44.374Z,2.30
2023-02-11T01:41:15.108Z,3.10
2023-02-11T01:43:46.201Z,1.93
2023-02-11T01:46:34.775Z,2.37
2023-02-11T01:49:06.890Z,1.37
2023-02-11T01:51:42.837Z,2.47
2023-02-11T01:54:29.979Z,2.27
2023-02-11T01:57:17.957Z,2.23
2023-02-11T01:59:53.492Z,2.00
2023-02-11T02:02:27.617Z,3.87
2023-02-11T02:05:03.665Z,1.73
2023-02-11T02:07:38.590Z,2.57
2023-02-11T02:10:12.599Z,1.30
2023-02-11T02:12:41.127Z,1.67
2023-02-11T02:15:26.329Z,2.57
2023-02-11T02:18:15.535Z,1.73
2023-02-11T02:21:27.919Z,1.63
2023-02-11T02:24:25.360Z,1.63
2023-02-11T02:27:25.433Z,1.77
2023-02-11T02:30:13.404Z,1.47
2023-02-11T02:33:16.656Z,2.03
2023-02-11T02:35:57.935Z,2.10
2023-02-11T02:38:32.604Z,1.37
2023-02-11T02:41:05.588Z,1.73
2023-02-11T02:43:37.996Z,2.93
2023-02-11T02:46:15.760Z,2.13
2023-02-11T02:48:46.607Z,4.77
2023-02-11T02:51:35.333Z,1.20
2023-02-11T02:54:18.608Z,2.20
2023-02-11T02:56:56.158Z,2.00
2023-02-11T02:59:37.457Z,1.33
2023-02-11T03:02:15.077Z,2.03
2023-02-11T03:04:53.254Z,2.00
2023-02-11T03:07:28.694Z,1.37
2023-02-11T03:10:02.453Z,1.63
2023-02-11T03:12:34.411Z,1.00
2023-02-11T03:15:05.016Z,3.03
2023-02-11T03:17:35.702Z,2.37
2023-02-11T03:20:07.923Z,1.90
2023-02-11T03:22:42.111Z,3.00
2023-02-11T03:25:11.229Z,4.23
2023-02-11T03:27:44.645Z,1.50
2023-02-11T03:30:17.874Z,1.10
2023-02-11T03:32:52.928Z,1.83
2023-02-11T03:35:28.392Z,1.80
2023-02-11T03:38:02.571Z,0.73
2023-02-11T03:40:36.556Z,2.60
2023-02-11T03:43:11.534Z,2.27
2023-02-11T03:45:40.916Z,1.87
2023-02-11T03:48:15.642Z,2.63
2023-02-11T03:50:48.833Z,2.03
2023-02-11T03:53:18.804Z,0.87
2023-02-11T03:55:50.594Z,1.63
2023-02-11T03:58:19.328Z,1.93
2023-02-11T04:00:47.830Z,1.53
2023-02-11T04:03:16.439Z,1.77
2023-02-11T04:05:46.508Z,3.00
2023-02-11T04:08:15.049Z,1.77
2023-02-11T04:10:43.569Z,1.20
2023-02-11T04:13:12.161Z,2.23
2023-02-11T04:15:40.670Z,1.77
2023-02-11T04:18:09.154Z,2.67
2023-02-11T04:20:37.735Z,1.80
2023-02-11T04:23:07.663Z,2.47
2023-02-11T04:25:36.301Z,3.70
2023-02-11T04:28:04.836Z,1.60
2023-02-11T04:30:33.441Z,1.57
2023-02-11T04:33:02.063Z,1.47
2023-02-11T04:35:30.607Z,3.00
2023-02-11T04:37:59.117Z,1.50
2023-02-11T04:40:29.056Z,2.10
2023-02-11T04:42:57.560Z,2.17
2023-02-11T04:45:26.258Z,3.27
2023-02-11T04:47:54.793Z,1.27
2023-02-11T04:50:23.455Z,1.70
2023-02-11T04:52:52.092Z,1.47
2023-02-11T04:55:20.737Z,2.83
2023-02-11T04:57:50.675Z,2.27
2023-02-11T05:00:19.565Z,3.73
2023-02-11T05:02:48.059Z,2.20
2023-02-11T05:05:16.635Z,4.23
2023-02-11T05:07:45.101Z,2.77
2023-02-11T05:10:13.587Z,2.50
2023-02-11T05:12:42.136Z,2.33
2023-02-11T05:15:12.381Z,3.33
2023-02-11T05:17:40.897Z,2.80
2023-02-11T05:20:10.486Z,2.77
2023-02-11T05:22:39.197Z,4.10
2023-02-11T05:25:08.659Z,1.43
2023-02-11T05:27:37.434Z,1.30
2023-02-11T05:30:06.987Z,5.00
2023-02-11T05:32:36.836Z,2.97
2023-02-11T05:35:05.915Z,3.37
2023-02-11T05:37:34.505Z,2.60
2023-02-11T05:40:03.069Z,2.23
2023-02-11T05:42:31.569Z,2.80
2023-02-11T05:45:00.208Z,1.87
2023-02-11T05:47:28.780Z,1.60
2023-02-11T05:49:58.671Z,2.60
2023-02-11T05:52:27.520Z,2.03
2023-02-11T05:54:56.008Z,2.00
2023-02-11T05:57:24.555Z,3.70
2023-02-11T05:59:53.058Z,2.83
2023-02-11T06:02:21.704Z,3.33
2023-02-11T06:04:50.211Z,2.33
2023-02-11T06:07:20.621Z,2.07
2023-02-11T06:09:49.179Z,1.67
2023-02-11T06:12:17.673Z,3.10
2023-02-11T06:14:46.218Z,3.07
2023-02-11T06:17:15.782Z,2.07
2023-02-11T06:19:44.380Z,3.50
2023-02-11T06:22:13.107Z,2.97
2023-02-11T06:25:00.331Z,5.13
2023-02-11T06:27:29.970Z,1.40
2023-02-11T06:29:58.572Z,2.73
2023-02-11T06:32:45.240Z,2.47
2023-02-11T06:35:14.623Z,2.37
2023-02-11T06:37:43.395Z,2.77
2023-02-11T06:40:14.065Z,1.33
2023-02-11T06:42:42.698Z,1.77
2023-02-11T06:45:13.291Z,3.17
2023-02-11T06:47:42.862Z,1.17
2023-02-11T06:50:14.702Z,1.97
2023-02-11T06:52:43.387Z,2.03
2023-02-11T06:55:13.270Z,2.63
2023-02-11T06:57:41.879Z,3.07
2023-02-11T07:00:11.882Z,1.80
2023-02-11T07:02:40.557Z,2.40
2023-02-11T07:05:09.922Z,2.03
2023-02-11T07:07:38.919Z,1.43
2023-02-11T07:10:08.404Z,2.57
2023-02-11T07:12:38.296Z,1.53
2023-02-11T07:15:07.652Z,3.43
2023-02-11T07:17:36.538Z,4.17
2023-02-11T07:20:05.602Z,1.93
2023-02-11T07:22:35.013Z,2.80
2023-02-11T07:25:04.327Z,3.23
2023-02-11T07:27:32.861Z,2.97
2023-02-11T07:30:05.473Z,1.50
2023-02-11T07:32:35.447Z,4.87
2023-02-11T07:35:04.080Z,2.10
2023-02-11T07:37:34.419Z,2.83
2023-02-11T07:40:02.924Z,2.77
2023-02-11T07:42:31.390Z,2.87
2023-02-11T07:45:01.378Z,2.00
2023-02-11T07:47:30.784Z,1.87
2023-02-11T07:49:59.233Z,2.67
2023-02-11T07:52:30.271Z,3.33
2023-02-11T07:54:58.940Z,1.50
2023-02-11T07:57:27.475Z,2.20
2023-02-11T07:59:56.030Z,2.07
2023-02-11T08:02:26.031Z,3.23
2023-02-11T08:04:54.726Z,2.63
2023-02-11T08:07:24.662Z,2.67
2023-02-11T08:09:54.334Z,3.20
2023-02-11T08:12:23.186Z,1.67
2023-02-11T08:14:51.728Z,1.97
2023-02-11T08:17:20.190Z,1.93
2023-02-11T08:19:50.146Z,2.77
2023-02-11T08:22:18.775Z,7.73
2023-02-11T08:24:47.337Z,2.60
2023-02-11T08:27:15.802Z,2.53
2023-02-11T08:29:44.327Z,3.97
2023-02-11T08:32:13.149Z,2.10
2023-02-11T08:34:41.697Z,3.20
2023-02-11T08:37:11.605Z,3.97
2023-02-11T08:39:40.359Z,3.20
2023-02-11T08:42:08.967Z,3.23
2023-02-11T08:44:37.712Z,3.03
2023-02-11T08:47:06.291Z,3.67
2023-02-11T08:49:35.121Z,2.37
2023-02-11T08:52:04.176Z,3.07
2023-02-11T08:54:34.167Z,3.30
2023-02-11T08:57:03.264Z,2.47
2023-02-11T08:59:31.975Z,2.87
2023-02-11T09:02:00.637Z,2.07
2023-02-11T09:04:29.368Z,2.13
2023-02-11T09:06:58.143Z,5.27
2023-02-11T09:09:26.885Z,2.80
2023-02-11T09:11:57.206Z,2.47
2023-02-11T09:14:26.318Z,2.00
2023-02-11T09:16:55.350Z,2.63
2023-02-11T09:19:24.197Z,1.80
2023-02-11T09:21:52.754Z,3.87
2023-02-11T09:24:21.282Z,1.73
2023-02-11T09:26:50.570Z,2.57
2023-02-11T09:29:20.874Z,2.20
2023-02-11T09:31:49.772Z,2.80
2023-02-11T09:34:18.413Z,5.30
2023-02-11T09:36:47.024Z,2.47
2023-02-11T09:39:18.044Z,3.93
2023-02-11T09:42:11.903Z,3.13
2023-02-11T09:44:45.122Z,1.87
2023-02-11T09:47:26.860Z,3.47
2023-02-11T09:50:01.317Z,1.10
2023-02-11T09:52:38.304Z,2.47
2023-02-11T09:55:19.700Z,3.20
2023-02-11T09:57:48.635Z,2.50
2023-02-11T10:00:25.373Z,2.57
2023-02-11T10:03:19.618Z,1.23
2023-02-11T10:06:19.878Z,2.07
2023-02-11T10:08:58.705Z,1.70
2023-02-11T10:11:40.882Z,2.23
2023-02-11T10:14:25.121Z,2.03
2023-02-11T10:17:06.019Z,2.93
2023-02-11T10:19:57.711Z,3.17
2023-02-11T10:22:31.960Z,1.63
2023-02-11T10:25:01.749Z,1.63
2023-02-11T10:27:33.726Z,1.53
2023-02-11T10:30:07.360Z,2.90
2023-02-11T10:32:45.154Z,2.07
2023-02-11T10:35:18.012Z,2.63
2023-02-11T10:37:46.977Z,1.83
2023-02-11T10:40:16.841Z,3.23
2023-02-11T10:42:50.276Z,2.83
2023-02-11T10:45:24.567Z,2.63
2023-02-11T10:47:55.185Z,2.03
2023-02-11T10:50:26.530Z,2.27
2023-02-11T10:53:12.025Z,0.80
2023-02-11T10:55:49.272Z,0.90
2023-02-11T10:58:29.010Z,3.10
2023-02-11T11:01:00.116Z,4.23
2023-02-11T11:03:35.324Z,1.03
2023-02-11T11:06:06.363Z,2.37
2023-02-11T11:08:43.976Z,1.67
2023-02-11T11:11:14.538Z,1.47
2023-02-11T11:13:56.385Z,1.80
2023-02-11T11:16:27.502Z,1.63
2023-02-11T11:19:21.827Z,2.10
2023-02-11T11:21:52.539Z,2.03
2023-02-11T11:24:26.819Z,2.33
2023-02-11T11:26:59.531Z,1.27
2023-02-11T11:29:35.755Z,2.93
2023-02-11T11:32:07.598Z,1.93
2023-02-11T11:34:40.486Z,2.50
2023-02-11T11:37:14.372Z,1.63
2023-02-11T11:39:42.889Z,1.90
2023-02-11T11:42:27.372Z,2.03
2023-02-11T11:45:00.936Z,2.37
2023-02-11T11:47:40.849Z,2.57
2023-02-11T11:50:26.577Z,1.60
2023-02-11T11:53:01.137Z,1.27
2023-02-11T11:55:34.426Z,1.60
2023-02-11T11:58:03.138Z,1.70
2023-02-11T12:00:37.197Z,0.90
2023-02-11T12:03:48.703Z,2.40
2023-02-11T12:06:31.947Z,1.70
2023-02-11T12:09:14.052Z,1.87
2023-02-11T12:11:58.133Z,1.43
2023-02-11T12:14:36.129Z,2.50
2023-02-11T12:17:13.718Z,1.47
2023-02-11T12:20:27.394Z,1.47
2023-02-11T12:23:27.069Z,1.33
2023-02-11T12:26:03.367Z,1.53
2023-02-11T12:28:41.864Z,1.10
2023-02-11T12:31:44.118Z,1.70
2023-02-11T12:34:32.495Z,1.03
2023-02-11T12:37:11.027Z,1.87
2023-02-11T12:39:46.212Z,1.20
2023-02-11T12:42:51.862Z,1.47
2023-02-11T12:45:34.663Z,1.60
2023-02-11T12:48:17.254Z,1.20
2023-02-11T12:50:56.776Z,1.60
2023-02-11T12:53:46.493Z,1.80
2023-02-11T12:56:22.232Z,1.83
2023-02-11T12:58:55.299Z,1.83
2023-02-11T13:01:27.780Z,1.73
2023-02-11T13:04:01.056Z,1.50
2023-02-11T13:06:35.464Z,3.57
2023-02-11T13:09:10.726Z,1.30
2023-02-11T13:11:44.456Z,1.63
2023-02-11T13:14:23.292Z,2.30
2023-02-11T13:16:53.714Z,1.90
2023-02-11T13:19:30.520Z,1.10
2023-02-11T13:22:08.413Z,1.53
2023-02-11T13:24:44.311Z,1.87
2023-02-11T13:27:31.571Z,1.37
2023-02-11T13:30:27.438Z,1.00
2023-02-11T13:33:20.600Z,1.77
2023-02-11T13:36:14.348Z,1.37
2023-02-11T13:38:52.358Z,1.30
2023-02-11T13:41:25.831Z,1.33
2023-02-11T13:44:04.961Z,1.00
2023-02-11T13:46:50.748Z,1.47
2023-02-11T13:49:25.842Z,1.50
2023-02-11T13:51:55.961Z,0.90
2023-02-11T13:54:32.304Z,1.13
2023-02-11T13:57:33.742Z,1.00
2023-02-11T14:00:25.250Z,0.93
2023-02-11T14:03:40.898Z,1.00
2023-02-11T14:06:33.733Z,0.83
2023-02-11T14:09:30.722Z,0.63
2023-02-11T14:12:27.130Z,1.10
2023-02-11T14:15:18.494Z,1.00
2023-02-11T14:17:47.066Z,1.20
2023-02-11T14:20:38.533Z,1.00
2023-02-11T14:23:08.166Z,0.77
2023-02-11T14:25:40.379Z,1.17
2023-02-11T14:28:19.459Z,1.17
2023-02-11T14:30:56.874Z,1.03
2023-02-11T14:33:57.620Z,0.80
2023-02-11T14:37:01.527Z,0.83
2023-02-11T14:39:45.260Z,1.50
2023-02-11T14:42:20.792Z,0.80
2023-02-11T14:44:53.372Z,0.60
2023-02-11T14:47:25.002Z,1.30
2023-02-11T14:49:54.709Z,1.27
2023-02-11T14:52:29.482Z,1.07
2023-02-11T14:55:08.410Z,0.63
2023-02-11T14:57:37.871Z,1.27
2023-02-11T15:00:18.228Z,0.83
2023-02-11T15:02:47.387Z,1.27
2023-02-11T15:05:18.965Z,0.77
2023-02-11T15:07:50.133Z,0.90
2023-02-11T15:10:29.603Z,0.80
2023-02-11T15:12:59.247Z,0.83
2023-02-11T15:15:30.632Z,0.40
2023-02-11T15:18:03.562Z,1.07
2023-02-11T15:20:35.783Z,0.80
2023-02-11T15:23:09.048Z,0.83
2023-02-11T15:25:46.004Z,1.10
2023-02-11T15:28:23.371Z,1.43
2023-02-11T15:31:01.745Z,0.63
2023-02-11T15:33:32.183Z,0.67
2023-02-11T15:36:03.156Z,1.23
2023-02-11T15:38:31.918Z,0.67
2023-02-11T15:41:02.352Z,0.53
2023-02-11T15:43:52.936Z,0.73
2023-02-11T15:46:24.977Z,0.77
2023-02-11T15:48:54.942Z,0.40
2023-02-11T15:51:28.681Z,0.67
2023-02-11T15:54:00.291Z,1.27
2023-02-11T15:56:34.369Z,0.83
2023-02-11T15:59:13.792Z,0.90
2023-02-11T16:01:45.372Z,1.37
2023-02-11T16:04:19.688Z,0.90
2023-02-11T16:06:49.021Z,1.23
2023-02-11T16:09:35.489Z,0.70
2023-02-11T16:12:07.720Z,0.70
2023-02-11T16:14:39.195Z,1.10
2023-02-11T16:17:13.209Z,1.00
2023-02-11T16:19:47.350Z,1.00
2023-02-11T16:22:20.227Z,1.10
2023-02-11T16:24:51.034Z,0.80
2023-02-11T16:27:24.188Z,0.80
2023-02-11T16:29:53.692Z,1.07
2023-02-11T16:32:25.374Z,1.10
2023-02-11T16:34:57.925Z,0.80
2023-02-11T16:37:26.879Z,0.90
2023-02-11T16:39:56.077Z,0.77
2023-02-11T16:42:24.693Z,0.80
2023-02-11T16:44:53.406Z,1.73
2023-02-11T16:47:26.448Z,1.43
2023-02-11T16:49:55.518Z,0.60
2023-02-11T16:52:24.849Z,0.60
2023-02-11T16:54:53.623Z,1.00
2023-02-11T16:57:24.544Z,1.17
2023-02-11T16:59:56.114Z,0.90
2023-02-11T17:02:28.541Z,1.23
2023-02-11T17:05:00.651Z,0.90
2023-02-11T17:07:30.235Z,0.50
2023-02-11T17:09:58.883Z,0.70
2023-02-11T17:12:27.664Z,0.63
2023-02-11T17:14:56.188Z,1.17
2023-02-11T17:17:26.073Z,0.53
2023-02-11T17:19:54.663Z,0.80
2023-02-11T17:22:23.166Z,0.70
2023-02-11T17:24:51.853Z,0.70
2023-02-11T17:27:20.362Z,0.63
2023-02-11T17:29:48.890Z,0.73
2023-02-11T17:32:17.695Z,0.53
2023-02-11T17:34:47.885Z,0.50
2023-02-11T17:37:16.612Z,0.83
2023-02-11T17:39:45.895Z,0.63
2023-02-11T17:42:14.955Z,0.73
2023-02-11T17:44:44.454Z,0.50
2023-02-11T17:47:13.022Z,1.63
2023-02-11T17:49:42.362Z,0.77
2023-02-11T17:52:12.450Z,1.20
2023-02-11T17:54:41.063Z,0.40
2023-02-11T17:57:09.730Z,0.57
2023-02-11T17:59:39.061Z,1.07
2023-02-11T18:02:07.625Z,0.67
2023-02-11T18:04:36.316Z,0.40
2023-02-11T18:07:05.161Z,1.07
2023-02-11T18:09:39.176Z,0.50
2023-02-11T18:12:08.715Z,0.70
2023-02-11T18:14:38.573Z,0.90
2023-02-11T18:17:07.153Z,0.60
2023-02-11T18:19:36.627Z,0.57
2023-02-11T18:22:05.280Z,0.30
2023-02-11T18:24:35.243Z,0.73
2023-02-11T18:27:03.792Z,0.63
2023-02-11T18:29:32.418Z,0.70
2023-02-11T18:32:01.392Z,0.50
2023-02-11T18:34:29.996Z,0.87
2023-02-11T18:36:58.589Z,0.70
2023-02-11T18:39:27.124Z,0.77
2023-02-11T18:41:59.014Z,0.80
2023-02-11T18:44:28.192Z,0.87
2023-02-11T18:46:56.780Z,0.73
2023-02-11T18:49:25.505Z,0.67
2023-02-11T18:51:54.092Z,0.50
2023-02-11T18:54:22.819Z,0.53
2023-02-11T18:56:51.699Z,0.43
2023-02-11T18:59:21.651Z,0.67
2023-02-11T19:01:51.064Z,0.50
2023-02-11T19:04:20.261Z,0.70
2023-02-11T19:06:50.168Z,0.40
2023-02-11T19:09:20.507Z,0.40
2023-02-11T19:11:50.199Z,0.63
2023-02-11T19:14:22.977Z,0.60
2023-02-11T19:16:54.495Z,0.73
2023-02-11T19:19:24.474Z,0.40
2023-02-11T19:21:53.152Z,0.67
2023-02-11T19:24:24.122Z,0.60
2023-02-11T19:26:54.622Z,0.77
2023-02-11T19:29:24.694Z,0.73
2023-02-11T19:31:53.341Z,0.57
2023-02-11T19:34:23.091Z,1.30
2023-02-11T19:36:53.821Z,0.90
2023-02-11T19:39:24.055Z,0.83
2023-02-11T19:41:52.776Z,0.73
2023-02-11T19:44:21.504Z,0.33
2023-02-11T19:46:53.305Z,0.70
2023-02-11T19:49:25.908Z,0.70
2023-02-11T19:51:57.281Z,0.70
2023-02-11T19:54:28.714Z,0.70
2023-02-11T19:56:59.042Z,1.03
2023-02-11T19:59:27.731Z,0.70
2023-02-11T20:01:58.050Z,0.30
2023-02-11T20:04:26.824Z,0.40
2023-02-11T20:06:55.416Z,0.40
2023-02-11T20:09:24.203Z,0.83
2023-02-11T20:11:52.904Z,0.60
2023-02-11T20:14:21.535Z,0.30
2023-02-11T20:16:50.373Z,0.50
2023-02-11T20:19:23.020Z,0.67
2023-02-11T20:21:55.419Z,0.77
2023-02-11T20:24:26.428Z,1.17
2023-02-11T20:26:56.449Z,1.27
2023-02-11T20:29:26.595Z,2.23
2023-02-11T20:31:55.809Z,1.63
2023-02-11T20:34:25.938Z,1.30
2023-02-11T20:36:54.867Z,1.40
2023-02-11T20:39:25.133Z,0.87
2023-02-11T20:41:54.472Z,0.60
2023-02-11T20:44:23.493Z,0.77
2023-02-11T20:46:54.013Z,0.90
2023-02-11T20:49:24.455Z,0.80
2023-02-11T20:51:54.751Z,0.87
2023-02-11T20:54:24.792Z,0.47
2023-02-11T20:56:55.368Z,0.40
2023-02-11T20:59:24.292Z,0.73
2023-02-11T21:01:55.277Z,0.50
2023-02-11T21:04:26.337Z,0.57
2023-02-11T21:06:58.605Z,0.50
2023-02-11T21:09:29.025Z,0.50
2023-02-11T21:11:57.801Z,0.50
2023-02-11T21:14:28.255Z,0.33
2023-02-11T21:16:57.522Z,0.90
2023-02-11T21:19:26.524Z,0.90
2023-02-11T21:21:57.331Z,0.40
2023-02-11T21:24:25.896Z,0.20
2023-02-11T21:26:54.694Z,0.40
2023-02-11T21:29:23.242Z,0.60
2023-02-11T21:31:51.837Z,0.93
2023-02-11T21:34:20.717Z,0.40
2023-02-11T21:36:51.124Z,0.40
2023-02-11T21:39:21.487Z,0.30
2023-02-11T21:41:50.057Z,0.90
2023-02-11T21:44:18.888Z,0.63
2023-02-11T21:46:47.547Z,0.30
2023-02-11T21:49:16.249Z,0.50
2023-02-11T21:51:44.892Z,0.30
2023-02-11T21:54:13.626Z,0.50
2023-02-11T21:56:43.595Z,0.40
2023-02-11T21:59:14.157Z,0.47
2023-02-11T22:01:42.713Z,0.53
2023-02-11T22:04:11.671Z,0.40
2023-02-11T22:06:40.346Z,0.30
2023-02-11T22:09:11.081Z,0.40
2023-02-11T22:11:39.755Z,0.70
2023-02-11T22:14:09.919Z,0.53
2023-02-11T22:16:38.559Z,0.50
2023-02-11T22:19:07.515Z,0.60
2023-02-11T22:21:36.120Z,0.20
2023-02-11T22:24:04.834Z,0.50
2023-02-11T22:26:33.573Z,0.30
2023-02-11T22:29:02.198Z,0.63
2023-02-11T22:31:34.212Z,0.40
2023-02-11T22:34:04.425Z,0.47
2023-02-11T22:36:35.130Z,0.30
2023-02-11T22:39:05.187Z,0.40
2023-02-11T22:41:34.176Z,0.30
2023-02-11T22:44:03.086Z,0.40
2023-02-11T22:46:33.584Z,0.27
2023-02-11T22:49:02.424Z,0.23
2023-02-11T22:51:31.717Z,0.50
2023-02-11T22:54:02.476Z,0.50
2023-02-11T22:56:33.177Z,0.70
2023-02-11T22:59:03.392Z,0.47
2023-02-11T23:01:34.222Z,0.37
2023-02-11T23:04:05.161Z,0.30
2023-02-11T23:06:34.234Z,0.40
2023-02-11T23:09:03.749Z,0.53
2023-02-11T23:11:33.541Z,0.30
2023-02-11T23:14:03.294Z,0.53
2023-02-11T23:16:34.689Z,1.03
2023-02-11T23:19:05.876Z,0.50
2023-02-11T23:21:37.295Z,0.40
2023-02-11T23:24:08.322Z,0.50
2023-02-11T23:26:38.844Z,0.63
2023-02-11T23:29:07.729Z,0.70
2023-02-11T23:31:40.840Z,0.40
2023-02-11T23:34:10.106Z,0.30
2023-02-11T23:36:38.792Z,0.77
2023-02-11T23:39:07.513Z,0.23
2023-02-11T23:41:36.093Z,0.40
2023-02-11T23:44:04.815Z,0.80
2023-02-11T23:46:33.647Z,0.30
2023-02-11T23:49:04.545Z,0.63
2023-02-11T23:51:33.379Z,0.40
2023-02-11T23:54:03.158Z,0.63
2023-02-11T23:56:31.743Z,0.40
2023-02-11T23:59:00.709Z,0.87
